sensor_id;sensor_type;location;lat;lon;timestamp;temperature;humidity
4874;DHT22;2451;49.970;9.068;2024-03-08T00:01:48;4.80;99.90
4874;DHT22;2451;49.970;9.068;2024-03-08T00:04:13;4.70;99.90
4874;DHT22;2451;49.970;9.068;2024-03-08T00:06:41;4.70;99.90
4874;DHT22;2451;49.970;9.068;2024-03-08T00:09:06;4.70;99.90
4874;DHT22;2451;49.970;9.068;2024-03-08T00:11:33;4.60;99.90
4874;DHT22;2451;49.970;9.068;2024-03-08T00:13:59;4.60;99.90
4874;DHT22;2451;49.970;9.068;2024-03-08T00:16:25;4.60;99.90
4874;DHT22;2451;49.970;9.068;2024-03-08T00:18:50;4.50;99.90
4874;DHT22;2451;49.970;9.068;2024-03-08T00:21:16;4.50;99.90
4874;DHT22;2451;49.970;9.068;2024-03-08T00:23:41;4.50;99.90
4874;DHT22;2451;49.970;9.068;2024-03-08T00:26:07;4.40;99.90
4874;DHT22;2451;49.970;9.068;2024-03-08T00:28:32;4.40;99.90
4874;DHT22;2451;49.970;9.068;2024-03-08T00:30:59;4.40;99.90
4874;DHT22;2451;49.970;9.068;2024-03-08T00:33:25;4.40;99.90
4874;DHT22;2451;49.970;9.068;2024-03-08T00:35:53;4.40;99.90
4874;DHT22;2451;49.970;9.068;2024-03-08T00:38:18;4.30;99.90
4874;DHT22;2451;49.970;9.068;2024-03-08T00:40:44;4.30;99.90
4874;DHT22;2451;49.970;9.068;2024-03-08T00:43:10;4.30;99.90
4874;DHT22;2451;49.970;9.068;2024-03-08T00:45:36;4.30;99.90
4874;DHT22;2451;49.970;9.068;2024-03-08T00:48:03;4.30;99.90
4874;DHT22;2451;49.970;9.068;2024-03-08T00:50:28;4.30;99.90
4874;DHT22;2451;49.970;9.068;2024-03-08T00:52:54;4.30;99.90
4874;DHT22;2451;49.970;9.068;2024-03-08T00:55:19;4.30;99.90
4874;DHT22;2451;49.970;9.068;2024-03-08T00:57:45;4.20;99.90
4874;DHT22;2451;49.970;9.068;2024-03-08T01:00:11;4.20;99.90
4874;DHT22;2451;49.970;9.068;2024-03-08T01:02:38;4.20;99.90
4874;DHT22;2451;49.970;9.068;2024-03-08T01:05:04;4.10;99.90
4874;DHT22;2451;49.970;9.068;2024-03-08T01:07:32;4.10;99.90
4874;DHT22;2451;49.970;9.068;2024-03-08T01:09:58;4.10;99.90
4874;DHT22;2451;49.970;9.068;2024-03-08T01:12:23;4.10;99.90
4874;DHT22;2451;49.970;9.068;2024-03-08T01:14:49;4.00;99.90
4874;DHT22;2451;49.970;9.068;2024-03-08T01:17:14;4.00;99.90
4874;DHT22;2451;49.970;9.068;2024-03-08T01:19:40;4.00;99.90
4874;DHT22;2451;49.970;9.068;2024-03-08T01:22:05;4.00;99.90
4874;DHT22;2451;49.970;9.068;2024-03-08T01:24:31;3.90;99.90
4874;DHT22;2451;49.970;9.068;2024-03-08T01:26:56;3.90;99.90
4874;DHT22;2451;49.970;9.068;2024-03-08T01:29:22;3.80;99.90
4874;DHT22;2451;49.970;9.068;2024-03-08T01:31:48;3.80;99.90
4874;DHT22;2451;49.970;9.068;2024-03-08T01:34:13;3.80;99.90
4874;DHT22;2451;49.970;9.068;2024-03-08T01:36:39;3.80;99.90
4874;DHT22;2451;49.970;9.068;2024-03-08T01:39:04;3.70;99.90
4874;DHT22;2451;49.970;9.068;2024-03-08T01:41:34;3.70;99.90
4874;DHT22;2451;49.970;9.068;2024-03-08T01:44:00;3.70;99.90
4874;DHT22;2451;49.970;9.068;2024-03-08T01:46:25;3.70;99.90
4874;DHT22;2451;49.970;9.068;2024-03-08T01:48:53;3.70;99.90
4874;DHT22;2451;49.970;9.068;2024-03-08T01:51:20;3.70;99.90
4874;DHT22;2451;49.970;9.068;2024-03-08T01:53:46;3.70;99.90
4874;DHT22;2451;49.970;9.068;2024-03-08T01:56:14;3.70;99.90
4874;DHT22;2451;49.970;9.068;2024-03-08T01:58:41;3.70;99.90
4874;DHT22;2451;49.970;9.068;2024-03-08T02:01:12;3.70;99.90
4874;DHT22;2451;49.970;9.068;2024-03-08T02:03:41;3.60;99.90
4874;DHT22;2451;49.970;9.068;2024-03-08T02:06:09;3.60;99.90
4874;DHT22;2451;49.970;9.068;2024-03-08T02:08:36;3.60;99.90
4874;DHT22;2451;49.970;9.068;2024-03-08T02:11:02;3.60;99.90
4874;DHT22;2451;49.970;9.068;2024-03-08T02:13:29;3.60;99.90
4874;DHT22;2451;49.970;9.068;2024-03-08T02:15:56;3.50;99.90
4874;DHT22;2451;49.970;9.068;2024-03-08T02:18:22;3.50;99.90
4874;DHT22;2451;49.970;9.068;2024-03-08T02:20:59;3.50;99.90
4874;DHT22;2451;49.970;9.068;2024-03-08T02:23:25;3.50;99.90
4874;DHT22;2451;49.970;9.068;2024-03-08T02:25:51;3.50;99.90
4874;DHT22;2451;49.970;9.068;2024-03-08T02:28:17;3.40;99.90
4874;DHT22;2451;49.970;9.068;2024-03-08T02:30:46;3.40;99.90
4874;DHT22;2451;49.970;9.068;2024-03-08T02:33:14;3.40;99.90
4874;DHT22;2451;49.970;9.068;2024-03-08T02:35:42;3.40;99.90
4874;DHT22;2451;49.970;9.068;2024-03-08T02:38:14;3.30;99.90
4874;DHT22;2451;49.970;9.068;2024-03-08T02:40:44;3.30;99.90
4874;DHT22;2451;49.970;9.068;2024-03-08T02:43:11;3.30;99.90
4874;DHT22;2451;49.970;9.068;2024-03-08T02:45:36;3.30;99.90
4874;DHT22;2451;49.970;9.068;2024-03-08T02:48:02;3.30;99.90
4874;DHT22;2451;49.970;9.068;2024-03-08T02:50:28;3.30;99.90
4874;DHT22;2451;49.970;9.068;2024-03-08T02:52:54;3.20;99.90
4874;DHT22;2451;49.970;9.068;2024-03-08T02:55:19;3.30;99.90
4874;DHT22;2451;49.970;9.068;2024-03-08T02:57:46;3.30;99.90
4874;DHT22;2451;49.970;9.068;2024-03-08T03:00:13;3.30;99.90
4874;DHT22;2451;49.970;9.068;2024-03-08T03:02:39;3.30;99.90
4874;DHT22;2451;49.970;9.068;2024-03-08T03:05:05;3.30;99.90
4874;DHT22;2451;49.970;9.068;2024-03-08T03:07:34;3.30;99.90
4874;DHT22;2451;49.970;9.068;2024-03-08T03:10:00;3.30;99.90
4874;DHT22;2451;49.970;9.068;2024-03-08T03:12:27;3.20;99.90
4874;DHT22;2451;49.970;9.068;2024-03-08T03:14:53;3.20;99.90
4874;DHT22;2451;49.970;9.068;2024-03-08T03:17:18;3.10;99.90
4874;DHT22;2451;49.970;9.068;2024-03-08T03:19:45;3.10;99.90
4874;DHT22;2451;49.970;9.068;2024-03-08T03:22:12;3.00;99.90
4874;DHT22;2451;49.970;9.068;2024-03-08T03:24:38;3.00;99.90
4874;DHT22;2451;49.970;9.068;2024-03-08T03:27:07;3.00;99.90
4874;DHT22;2451;49.970;9.068;2024-03-08T03:29:39;3.00;99.90
4874;DHT22;2451;49.970;9.068;2024-03-08T03:32:08;2.90;99.90
4874;DHT22;2451;49.970;9.068;2024-03-08T03:34:34;2.90;99.90
4874;DHT22;2451;49.970;9.068;2024-03-08T03:37:03;2.80;99.90
4874;DHT22;2451;49.970;9.068;2024-03-08T03:39:29;2.80;99.90
4874;DHT22;2451;49.970;9.068;2024-03-08T03:41:57;2.80;99.90
4874;DHT22;2451;49.970;9.068;2024-03-08T03:44:23;2.80;99.90
4874;DHT22;2451;49.970;9.068;2024-03-08T03:46:49;2.70;99.90
4874;DHT22;2451;49.970;9.068;2024-03-08T03:49:16;2.70;99.90
4874;DHT22;2451;49.970;9.068;2024-03-08T03:51:42;2.70;99.90
4874;DHT22;2451;49.970;9.068;2024-03-08T03:54:08;2.70;99.90
4874;DHT22;2451;49.970;9.068;2024-03-08T03:56:33;2.60;99.90
4874;DHT22;2451;49.970;9.068;2024-03-08T03:58:59;2.60;99.90
4874;DHT22;2451;49.970;9.068;2024-03-08T04:01:24;2.60;99.90
4874;DHT22;2451;49.970;9.068;2024-03-08T04:03:50;2.60;99.90
4874;DHT22;2451;49.970;9.068;2024-03-08T04:06:15;2.50;99.90
4874;DHT22;2451;49.970;9.068;2024-03-08T04:08:41;2.50;99.90
4874;DHT22;2451;49.970;9.068;2024-03-08T04:11:07;2.40;99.90
4874;DHT22;2451;49.970;9.068;2024-03-08T04:13:34;2.40;99.90
4874;DHT22;2451;49.970;9.068;2024-03-08T04:16:00;2.40;99.90
4874;DHT22;2451;49.970;9.068;2024-03-08T04:18:25;2.40;99.90
4874;DHT22;2451;49.970;9.068;2024-03-08T04:20:51;2.30;99.90
4874;DHT22;2451;49.970;9.068;2024-03-08T04:23:16;2.30;99.90
4874;DHT22;2451;49.970;9.068;2024-03-08T04:25:43;2.30;99.90
4874;DHT22;2451;49.970;9.068;2024-03-08T04:28:09;2.30;99.90
4874;DHT22;2451;49.970;9.068;2024-03-08T04:30:38;2.30;99.90
4874;DHT22;2451;49.970;9.068;2024-03-08T04:33:05;2.30;99.90
4874;DHT22;2451;49.970;9.068;2024-03-08T04:35:32;2.30;99.90
4874;DHT22;2451;49.970;9.068;2024-03-08T04:37:57;2.30;99.90
4874;DHT22;2451;49.970;9.068;2024-03-08T04:40:23;2.30;99.90
4874;DHT22;2451;49.970;9.068;2024-03-08T04:42:49;2.30;99.90
4874;DHT22;2451;49.970;9.068;2024-03-08T04:45:16;2.40;99.90
4874;DHT22;2451;49.970;9.068;2024-03-08T04:47:42;2.30;99.90
4874;DHT22;2451;49.970;9.068;2024-03-08T04:50:08;2.30;99.90
4874;DHT22;2451;49.970;9.068;2024-03-08T04:52:34;2.30;99.90
4874;DHT22;2451;49.970;9.068;2024-03-08T04:55:01;2.30;99.90
4874;DHT22;2451;49.970;9.068;2024-03-08T04:57:27;2.20;99.90
4874;DHT22;2451;49.970;9.068;2024-03-08T04:59:53;2.20;99.90
4874;DHT22;2451;49.970;9.068;2024-03-08T05:02:18;2.20;99.90
4874;DHT22;2451;49.970;9.068;2024-03-08T05:04:44;2.20;99.90
4874;DHT22;2451;49.970;9.068;2024-03-08T05:07:09;2.20;99.90
4874;DHT22;2451;49.970;9.068;2024-03-08T05:09:35;2.20;99.90
4874;DHT22;2451;49.970;9.068;2024-03-08T05:12:01;2.20;99.90
4874;DHT22;2451;49.970;9.068;2024-03-08T05:14:27;2.10;99.90
4874;DHT22;2451;49.970;9.068;2024-03-08T05:16:52;2.00;99.90
4874;DHT22;2451;49.970;9.068;2024-03-08T05:19:19;1.90;99.90
4874;DHT22;2451;49.970;9.068;2024-03-08T05:21:45;1.90;99.90
4874;DHT22;2451;49.970;9.068;2024-03-08T05:24:11;1.80;99.90
4874;DHT22;2451;49.970;9.068;2024-03-08T05:26:36;1.80;99.90
4874;DHT22;2451;49.970;9.068;2024-03-08T05:29:05;1.80;99.90
4874;DHT22;2451;49.970;9.068;2024-03-08T05:31:42;1.70;99.90
4874;DHT22;2451;49.970;9.068;2024-03-08T05:34:08;1.70;99.90
4874;DHT22;2451;49.970;9.068;2024-03-08T05:36:35;1.70;99.90
4874;DHT22;2451;49.970;9.068;2024-03-08T05:39:00;1.60;99.90
4874;DHT22;2451;49.970;9.068;2024-03-08T05:41:26;1.60;99.90
4874;DHT22;2451;49.970;9.068;2024-03-08T05:43:51;1.70;99.90
4874;DHT22;2451;49.970;9.068;2024-03-08T05:46:17;1.70;99.90
4874;DHT22;2451;49.970;9.068;2024-03-08T05:48:43;1.70;99.90
4874;DHT22;2451;49.970;9.068;2024-03-08T05:51:09;1.80;99.90
4874;DHT22;2451;49.970;9.068;2024-03-08T05:53:35;1.80;99.90
4874;DHT22;2451;49.970;9.068;2024-03-08T05:56:00;1.80;99.90
4874;DHT22;2451;49.970;9.068;2024-03-08T05:58:27;1.90;99.90
4874;DHT22;2451;49.970;9.068;2024-03-08T06:00:55;1.90;99.90
4874;DHT22;2451;49.970;9.068;2024-03-08T06:03:21;1.90;99.90
4874;DHT22;2451;49.970;9.068;2024-03-08T06:05:48;1.90;99.90
4874;DHT22;2451;49.970;9.068;2024-03-08T06:08:13;2.00;99.90
4874;DHT22;2451;49.970;9.068;2024-03-08T06:10:40;2.00;99.90
4874;DHT22;2451;49.970;9.068;2024-03-08T06:13:06;2.00;99.90
4874;DHT22;2451;49.970;9.068;2024-03-08T06:15:32;2.00;99.90
4874;DHT22;2451;49.970;9.068;2024-03-08T06:17:57;2.00;99.90
4874;DHT22;2451;49.970;9.068;2024-03-08T06:20:23;2.10;99.90
4874;DHT22;2451;49.970;9.068;2024-03-08T06:22:51;2.20;99.90
4874;DHT22;2451;49.970;9.068;2024-03-08T06:25:17;2.20;99.90
4874;DHT22;2451;49.970;9.068;2024-03-08T06:27:43;2.30;99.90
4874;DHT22;2451;49.970;9.068;2024-03-08T06:30:09;2.40;99.90
4874;DHT22;2451;49.970;9.068;2024-03-08T06:32:36;2.40;99.90
4874;DHT22;2451;49.970;9.068;2024-03-08T06:35:03;2.50;99.90
4874;DHT22;2451;49.970;9.068;2024-03-08T06:37:32;2.60;99.90
4874;DHT22;2451;49.970;9.068;2024-03-08T06:39:57;2.70;99.90
4874;DHT22;2451;49.970;9.068;2024-03-08T06:42:23;2.80;99.90
4874;DHT22;2451;49.970;9.068;2024-03-08T06:44:48;2.90;99.90
4874;DHT22;2451;49.970;9.068;2024-03-08T06:47:17;3.10;99.90
4874;DHT22;2451;49.970;9.068;2024-03-08T06:49:43;3.40;99.90
4874;DHT22;2451;49.970;9.068;2024-03-08T06:52:12;3.80;99.90
4874;DHT22;2451;49.970;9.068;2024-03-08T06:54:37;4.20;99.90
4874;DHT22;2451;49.970;9.068;2024-03-08T06:57:04;4.60;99.90
4874;DHT22;2451;49.970;9.068;2024-03-08T06:59:30;5.10;99.90
4874;DHT22;2451;49.970;9.068;2024-03-08T07:01:56;5.40;99.90
4874;DHT22;2451;49.970;9.068;2024-03-08T07:04:21;5.70;99.90
4874;DHT22;2451;49.970;9.068;2024-03-08T07:06:51;5.90;99.90
4874;DHT22;2451;49.970;9.068;2024-03-08T07:09:17;6.30;99.90
4874;DHT22;2451;49.970;9.068;2024-03-08T07:11:43;6.30;99.90
4874;DHT22;2451;49.970;9.068;2024-03-08T07:14:08;6.40;99.90
4874;DHT22;2451;49.970;9.068;2024-03-08T07:16:34;6.70;99.90
4874;DHT22;2451;49.970;9.068;2024-03-08T07:19:03;6.90;99.90
4874;DHT22;2451;49.970;9.068;2024-03-08T07:21:30;7.10;99.90
4874;DHT22;2451;49.970;9.068;2024-03-08T07:23:56;7.30;99.90
4874;DHT22;2451;49.970;9.068;2024-03-08T07:26:24;7.50;99.90
4874;DHT22;2451;49.970;9.068;2024-03-08T07:28:50;7.60;99.90
4874;DHT22;2451;49.970;9.068;2024-03-08T07:31:15;7.60;99.90
4874;DHT22;2451;49.970;9.068;2024-03-08T07:33:52;7.60;99.90
4874;DHT22;2451;49.970;9.068;2024-03-08T07:36:19;7.50;99.90
4874;DHT22;2451;49.970;9.068;2024-03-08T07:38:44;7.70;99.90
4874;DHT22;2451;49.970;9.068;2024-03-08T07:41:12;8.20;99.90
4874;DHT22;2451;49.970;9.068;2024-03-08T07:43:38;8.60;99.90
4874;DHT22;2451;49.970;9.068;2024-03-08T07:46:04;8.70;99.90
4874;DHT22;2451;49.970;9.068;2024-03-08T07:48:29;8.70;99.90
4874;DHT22;2451;49.970;9.068;2024-03-08T07:50:56;8.50;99.90
4874;DHT22;2451;49.970;9.068;2024-03-08T07:53:21;8.60;99.90
4874;DHT22;2451;49.970;9.068;2024-03-08T07:55:47;8.50;99.90
4874;DHT22;2451;49.970;9.068;2024-03-08T07:58:12;8.70;99.90
4874;DHT22;2451;49.970;9.068;2024-03-08T08:00:39;8.80;99.90
4874;DHT22;2451;49.970;9.068;2024-03-08T08:03:04;8.90;99.90
4874;DHT22;2451;49.970;9.068;2024-03-08T08:05:30;9.20;99.90
4874;DHT22;2451;49.970;9.068;2024-03-08T08:08:03;9.30;99.90
4874;DHT22;2451;49.970;9.068;2024-03-08T08:10:32;9.30;99.90
4874;DHT22;2451;49.970;9.068;2024-03-08T08:12:58;9.40;99.90
4874;DHT22;2451;49.970;9.068;2024-03-08T08:15:24;9.30;99.90
4874;DHT22;2451;49.970;9.068;2024-03-08T08:17:49;9.30;99.90
4874;DHT22;2451;49.970;9.068;2024-03-08T08:20:15;9.10;99.90
4874;DHT22;2451;49.970;9.068;2024-03-08T08:22:41;9.00;99.90
4874;DHT22;2451;49.970;9.068;2024-03-08T08:25:07;8.90;99.90
4874;DHT22;2451;49.970;9.068;2024-03-08T08:27:33;9.00;99.90
4874;DHT22;2451;49.970;9.068;2024-03-08T08:29:59;8.90;99.90
4874;DHT22;2451;49.970;9.068;2024-03-08T08:32:25;8.90;99.90
4874;DHT22;2451;49.970;9.068;2024-03-08T08:34:51;8.90;99.90
4874;DHT22;2451;49.970;9.068;2024-03-08T08:37:17;8.90;99.90
4874;DHT22;2451;49.970;9.068;2024-03-08T08:39:42;8.60;99.90
4874;DHT22;2451;49.970;9.068;2024-03-08T08:42:08;8.40;99.90
4874;DHT22;2451;49.970;9.068;2024-03-08T08:44:35;8.10;99.90
4874;DHT22;2451;49.970;9.068;2024-03-08T08:47:01;8.10;99.90
4874;DHT22;2451;49.970;9.068;2024-03-08T08:49:26;8.10;99.90
4874;DHT22;2451;49.970;9.068;2024-03-08T08:51:52;8.40;99.90
4874;DHT22;2451;49.970;9.068;2024-03-08T08:54:18;8.30;99.90
4874;DHT22;2451;49.970;9.068;2024-03-08T08:56:44;8.40;99.90
4874;DHT22;2451;49.970;9.068;2024-03-08T08:59:10;8.40;99.90
4874;DHT22;2451;49.970;9.068;2024-03-08T09:01:39;8.30;99.90
4874;DHT22;2451;49.970;9.068;2024-03-08T09:04:05;8.10;99.90
4874;DHT22;2451;49.970;9.068;2024-03-08T09:06:31;8.20;99.90
4874;DHT22;2451;49.970;9.068;2024-03-08T09:08:56;8.60;99.90
4874;DHT22;2451;49.970;9.068;2024-03-08T09:11:29;8.80;99.90
4874;DHT22;2451;49.970;9.068;2024-03-08T09:13:55;9.00;99.90
4874;DHT22;2451;49.970;9.068;2024-03-08T09:16:20;9.30;99.90
4874;DHT22;2451;49.970;9.068;2024-03-08T09:18:49;9.50;99.90
4874;DHT22;2451;49.970;9.068;2024-03-08T09:21:14;9.50;99.90
4874;DHT22;2451;49.970;9.068;2024-03-08T09:23:40;9.70;99.90
4874;DHT22;2451;49.970;9.068;2024-03-08T09:26:06;9.90;99.90
4874;DHT22;2451;49.970;9.068;2024-03-08T09:28:35;10.10;99.90
4874;DHT22;2451;49.970;9.068;2024-03-08T09:31:01;10.30;99.90
4874;DHT22;2451;49.970;9.068;2024-03-08T09:33:26;10.30;99.50
4874;DHT22;2451;49.970;9.068;2024-03-08T09:35:54;10.30;98.90
4874;DHT22;2451;49.970;9.068;2024-03-08T09:38:19;10.10;98.80
4874;DHT22;2451;49.970;9.068;2024-03-08T09:40:46;9.90;99.60
4874;DHT22;2451;49.970;9.068;2024-03-08T09:43:11;10.00;99.00
4874;DHT22;2451;49.970;9.068;2024-03-08T09:45:37;9.80;98.80
4874;DHT22;2451;49.970;9.068;2024-03-08T09:48:11;9.60;99.30
4874;DHT22;2451;49.970;9.068;2024-03-08T09:50:40;9.50;99.70
4874;DHT22;2451;49.970;9.068;2024-03-08T09:53:06;9.60;99.60
4874;DHT22;2451;49.970;9.068;2024-03-08T09:55:38;9.90;99.70
4874;DHT22;2451;49.970;9.068;2024-03-08T09:58:08;10.10;99.10
4874;DHT22;2451;49.970;9.068;2024-03-08T10:00:58;10.30;98.30
4874;DHT22;2451;49.970;9.068;2024-03-08T10:03:23;10.30;98.10
4874;DHT22;2451;49.970;9.068;2024-03-08T10:05:51;10.60;98.30
4874;DHT22;2451;49.970;9.068;2024-03-08T10:08:17;10.80;97.60
4874;DHT22;2451;49.970;9.068;2024-03-08T10:10:43;10.90;97.60
4874;DHT22;2451;49.970;9.068;2024-03-08T10:13:09;10.60;96.20
4874;DHT22;2451;49.970;9.068;2024-03-08T10:15:42;10.50;96.70
4874;DHT22;2451;49.970;9.068;2024-03-08T10:18:11;10.50;96.70
4874;DHT22;2451;49.970;9.068;2024-03-08T10:20:45;10.50;97.20
4874;DHT22;2451;49.970;9.068;2024-03-08T10:23:11;10.50;97.60
4874;DHT22;2451;49.970;9.068;2024-03-08T10:25:38;10.70;96.70
4874;DHT22;2451;49.970;9.068;2024-03-08T10:28:04;10.80;96.50
4874;DHT22;2451;49.970;9.068;2024-03-08T10:30:30;10.70;96.10
4874;DHT22;2451;49.970;9.068;2024-03-08T10:32:56;10.80;96.00
4874;DHT22;2451;49.970;9.068;2024-03-08T10:35:22;10.80;96.00
4874;DHT22;2451;49.970;9.068;2024-03-08T10:37:52;11.00;96.10
4874;DHT22;2451;49.970;9.068;2024-03-08T10:40:29;11.20;96.20
4874;DHT22;2451;49.970;9.068;2024-03-08T10:42:59;11.20;95.30
4874;DHT22;2451;49.970;9.068;2024-03-08T10:47:58;11.40;95.60
4874;DHT22;2451;49.970;9.068;2024-03-08T10:50:27;11.40;94.40
4874;DHT22;2451;49.970;9.068;2024-03-08T10:52:55;11.30;94.30
4874;DHT22;2451;49.970;9.068;2024-03-08T10:55:23;11.40;94.40
4874;DHT22;2451;49.970;9.068;2024-03-08T10:57:49;11.50;94.30
4874;DHT22;2451;49.970;9.068;2024-03-08T11:00:16;11.50;93.90
4874;DHT22;2451;49.970;9.068;2024-03-08T11:02:44;11.70;94.10
4874;DHT22;2451;49.970;9.068;2024-03-08T11:05:13;12.10;94.10
4874;DHT22;2451;49.970;9.068;2024-03-08T11:07:42;12.30;93.00
4874;DHT22;2451;49.970;9.068;2024-03-08T11:10:19;12.30;92.50
4874;DHT22;2451;49.970;9.068;2024-03-08T11:12:45;12.40;92.80
4874;DHT22;2451;49.970;9.068;2024-03-08T11:15:13;12.40;92.70
4874;DHT22;2451;49.970;9.068;2024-03-08T11:17:48;12.40;92.10
4874;DHT22;2451;49.970;9.068;2024-03-08T11:20:16;12.50;92.80
4874;DHT22;2451;49.970;9.068;2024-03-08T11:22:54;12.80;92.30
4874;DHT22;2451;49.970;9.068;2024-03-08T11:25:40;12.70;91.30
4874;DHT22;2451;49.970;9.068;2024-03-08T11:28:23;12.90;91.10
4874;DHT22;2451;49.970;9.068;2024-03-08T11:33:27;13.20;90.30
4874;DHT22;2451;49.970;9.068;2024-03-08T11:36:23;13.40;90.50
4874;DHT22;2451;49.970;9.068;2024-03-08T11:38:53;13.50;89.80
4874;DHT22;2451;49.970;9.068;2024-03-08T11:41:21;13.60;89.30
4874;DHT22;2451;49.970;9.068;2024-03-08T11:43:47;13.90;89.00
4874;DHT22;2451;49.970;9.068;2024-03-08T11:46:17;13.60;86.00
4874;DHT22;2451;49.970;9.068;2024-03-08T11:48:47;13.50;88.50
4874;DHT22;2451;49.970;9.068;2024-03-08T11:51:14;13.40;88.00
4874;DHT22;2451;49.970;9.068;2024-03-08T11:53:43;13.50;88.80
4874;DHT22;2451;49.970;9.068;2024-03-08T11:56:13;13.70;88.30
4874;DHT22;2451;49.970;9.068;2024-03-08T11:58:40;14.00;86.40
4874;DHT22;2451;49.970;9.068;2024-03-08T12:01:10;13.60;85.30
4874;DHT22;2451;49.970;9.068;2024-03-08T12:03:40;13.60;86.30
4874;DHT22;2451;49.970;9.068;2024-03-08T12:06:08;13.40;86.20
4874;DHT22;2451;49.970;9.068;2024-03-08T12:08:35;13.30;86.40
4874;DHT22;2451;49.970;9.068;2024-03-08T12:11:04;13.50;86.10
4874;DHT22;2451;49.970;9.068;2024-03-08T12:13:31;13.30;85.80
4874;DHT22;2451;49.970;9.068;2024-03-08T12:15:58;13.50;87.20
4874;DHT22;2451;49.970;9.068;2024-03-08T12:18:28;13.60;86.00
4874;DHT22;2451;49.970;9.068;2024-03-08T12:21:04;13.50;85.10
4874;DHT22;2451;49.970;9.068;2024-03-08T12:23:33;13.60;85.70
4874;DHT22;2451;49.970;9.068;2024-03-08T12:26:09;13.90;87.00
4874;DHT22;2451;49.970;9.068;2024-03-08T12:28:39;14.10;85.10
4874;DHT22;2451;49.970;9.068;2024-03-08T12:31:07;14.00;82.80
4874;DHT22;2451;49.970;9.068;2024-03-08T12:36:17;13.80;83.20
4874;DHT22;2451;49.970;9.068;2024-03-08T12:38:44;13.80;83.80
4874;DHT22;2451;49.970;9.068;2024-03-08T12:41:13;13.90;84.90
4874;DHT22;2451;49.970;9.068;2024-03-08T12:43:39;13.80;84.40
4874;DHT22;2451;49.970;9.068;2024-03-08T12:46:04;13.70;84.20
4874;DHT22;2451;49.970;9.068;2024-03-08T12:48:37;13.40;83.40
4874;DHT22;2451;49.970;9.068;2024-03-08T12:51:08;13.70;85.10
4874;DHT22;2451;49.970;9.068;2024-03-08T12:53:34;13.80;84.60
4874;DHT22;2451;49.970;9.068;2024-03-08T12:56:00;13.40;83.60
4874;DHT22;2451;49.970;9.068;2024-03-08T12:58:26;13.50;83.80
4874;DHT22;2451;49.970;9.068;2024-03-08T13:00:52;13.50;83.60
4874;DHT22;2451;49.970;9.068;2024-03-08T13:03:18;13.40;83.60
4874;DHT22;2451;49.970;9.068;2024-03-08T13:05:53;13.70;85.10
4874;DHT22;2451;49.970;9.068;2024-03-08T13:08:18;13.70;84.30
4874;DHT22;2451;49.970;9.068;2024-03-08T13:10:44;13.80;82.60
4874;DHT22;2451;49.970;9.068;2024-03-08T13:13:10;13.50;82.50
4874;DHT22;2451;49.970;9.068;2024-03-08T13:15:37;13.60;83.00
4874;DHT22;2451;49.970;9.068;2024-03-08T13:18:02;13.80;82.80
4874;DHT22;2451;49.970;9.068;2024-03-08T13:20:29;13.80;83.20
4874;DHT22;2451;49.970;9.068;2024-03-08T13:22:55;14.00;82.20
4874;DHT22;2451;49.970;9.068;2024-03-08T13:25:21;13.90;81.20
4874;DHT22;2451;49.970;9.068;2024-03-08T13:27:47;14.00;83.10
4874;DHT22;2451;49.970;9.068;2024-03-08T13:30:13;14.20;81.70
4874;DHT22;2451;49.970;9.068;2024-03-08T13:32:42;14.40;81.40
4874;DHT22;2451;49.970;9.068;2024-03-08T13:35:11;14.30;80.40
4874;DHT22;2451;49.970;9.068;2024-03-08T13:37:41;14.40;81.30
4874;DHT22;2451;49.970;9.068;2024-03-08T13:40:14;14.50;80.40
4874;DHT22;2451;49.970;9.068;2024-03-08T13:42:40;14.50;79.10
4874;DHT22;2451;49.970;9.068;2024-03-08T13:45:08;14.60;79.00
4874;DHT22;2451;49.970;9.068;2024-03-08T13:47:38;14.50;80.00
4874;DHT22;2451;49.970;9.068;2024-03-08T13:50:07;14.50;79.40
4874;DHT22;2451;49.970;9.068;2024-03-08T13:52:33;14.40;77.80
4874;DHT22;2451;49.970;9.068;2024-03-08T13:55:00;14.00;78.80
4874;DHT22;2451;49.970;9.068;2024-03-08T13:57:26;13.90;79.20
4874;DHT22;2451;49.970;9.068;2024-03-08T13:59:52;13.90;80.40
4874;DHT22;2451;49.970;9.068;2024-03-08T14:02:18;13.70;78.70
4874;DHT22;2451;49.970;9.068;2024-03-08T14:04:44;13.70;81.50
4874;DHT22;2451;49.970;9.068;2024-03-08T14:07:09;13.70;80.00
4874;DHT22;2451;49.970;9.068;2024-03-08T14:09:36;13.60;80.20
4874;DHT22;2451;49.970;9.068;2024-03-08T14:12:08;13.70;81.20
4874;DHT22;2451;49.970;9.068;2024-03-08T14:14:34;13.70;80.30
4874;DHT22;2451;49.970;9.068;2024-03-08T14:17:01;13.70;81.10
4874;DHT22;2451;49.970;9.068;2024-03-08T14:19:28;13.60;80.10
4874;DHT22;2451;49.970;9.068;2024-03-08T14:22:12;13.20;79.40
4874;DHT22;2451;49.970;9.068;2024-03-08T14:24:40;13.20;81.10
4874;DHT22;2451;49.970;9.068;2024-03-08T14:27:08;13.40;82.20
4874;DHT22;2451;49.970;9.068;2024-03-08T14:29:35;13.30;81.60
4874;DHT22;2451;49.970;9.068;2024-03-08T14:32:01;13.30;79.90
4874;DHT22;2451;49.970;9.068;2024-03-08T14:34:28;13.30;80.30
4874;DHT22;2451;49.970;9.068;2024-03-08T14:36:55;13.10;79.50
4874;DHT22;2451;49.970;9.068;2024-03-08T14:39:20;13.00;79.80
4874;DHT22;2451;49.970;9.068;2024-03-08T14:41:47;13.20;80.50
4874;DHT22;2451;49.970;9.068;2024-03-08T14:44:13;13.20;79.80
4874;DHT22;2451;49.970;9.068;2024-03-08T14:46:40;13.20;79.50
4874;DHT22;2451;49.970;9.068;2024-03-08T14:49:05;13.30;82.00
4874;DHT22;2451;49.970;9.068;2024-03-08T14:51:32;13.30;80.60
4874;DHT22;2451;49.970;9.068;2024-03-08T14:53:58;13.40;80.00
4874;DHT22;2451;49.970;9.068;2024-03-08T14:56:24;13.40;80.10
4874;DHT22;2451;49.970;9.068;2024-03-08T14:58:52;13.30;80.50
4874;DHT22;2451;49.970;9.068;2024-03-08T15:01:18;13.30;79.30
4874;DHT22;2451;49.970;9.068;2024-03-08T15:03:50;13.30;79.80
4874;DHT22;2451;49.970;9.068;2024-03-08T15:06:16;13.20;79.70
4874;DHT22;2451;49.970;9.068;2024-03-08T15:08:45;13.40;80.10
4874;DHT22;2451;49.970;9.068;2024-03-08T15:11:11;13.40;79.70
4874;DHT22;2451;49.970;9.068;2024-03-08T15:13:37;13.50;79.30
4874;DHT22;2451;49.970;9.068;2024-03-08T15:16:07;13.40;79.00
4874;DHT22;2451;49.970;9.068;2024-03-08T15:18:34;13.20;78.20
4874;DHT22;2451;49.970;9.068;2024-03-08T15:21:00;13.00;78.40
4874;DHT22;2451;49.970;9.068;2024-03-08T15:23:26;13.00;80.50
4874;DHT22;2451;49.970;9.068;2024-03-08T15:25:52;13.10;81.30
4874;DHT22;2451;49.970;9.068;2024-03-08T15:28:17;13.20;79.70
4874;DHT22;2451;49.970;9.068;2024-03-08T15:30:46;13.20;79.30
4874;DHT22;2451;49.970;9.068;2024-03-08T15:33:16;13.20;78.90
4874;DHT22;2451;49.970;9.068;2024-03-08T15:35:51;13.10;79.10
4874;DHT22;2451;49.970;9.068;2024-03-08T15:38:24;13.00;78.80
4874;DHT22;2451;49.970;9.068;2024-03-08T15:40:50;12.80;78.50
4874;DHT22;2451;49.970;9.068;2024-03-08T15:43:17;12.70;78.30
4874;DHT22;2451;49.970;9.068;2024-03-08T15:45:45;12.70;79.30
4874;DHT22;2451;49.970;9.068;2024-03-08T15:48:12;12.60;79.60
4874;DHT22;2451;49.970;9.068;2024-03-08T15:50:38;12.50;80.00
4874;DHT22;2451;49.970;9.068;2024-03-08T15:53:04;12.50;80.20
4874;DHT22;2451;49.970;9.068;2024-03-08T15:55:32;12.40;79.70
4874;DHT22;2451;49.970;9.068;2024-03-08T15:58:00;12.40;81.20
4874;DHT22;2451;49.970;9.068;2024-03-08T16:00:31;12.40;82.10
4874;DHT22;2451;49.970;9.068;2024-03-08T16:03:05;12.40;82.00
4874;DHT22;2451;49.970;9.068;2024-03-08T16:05:37;12.40;81.30
4874;DHT22;2451;49.970;9.068;2024-03-08T16:08:04;12.40;80.80
4874;DHT22;2451;49.970;9.068;2024-03-08T16:10:30;12.40;81.80
4874;DHT22;2451;49.970;9.068;2024-03-08T16:12:56;12.30;82.10
4874;DHT22;2451;49.970;9.068;2024-03-08T16:15:22;12.30;81.90
4874;DHT22;2451;49.970;9.068;2024-03-08T16:17:47;12.20;81.80
4874;DHT22;2451;49.970;9.068;2024-03-08T16:20:15;12.10;80.90